Time;durP1;ratioP1;P1;durP2;ratioP2;P2;SDS_P1;SDS_P2;PMS_P1;PMS_P2;Temp;Humidity;BMP_temperature;BMP_pressure;BME280_temperature;BME280_humidity;BME280_pressure;Samples;Min_cycle;Max_cycle;Signal;HPM_P1;HPM_P2
2022/06/08 00:00:01;;;;;;;79.32;18.70;;;;;;;13.96;55.12;99411.03;5197873;23;20045;-84
2022/06/08 00:02:38;;;;;;;64.53;17.50;;;;;;;13.85;55.16;99394.13;4880417;29;20506;-84
2022/06/08 00:05:05;;;;;;;60.20;17.67;;;;;;;13.99;54.86;99413.91;4863972;29;20255;-85
2022/06/08 00:07:31;;;;;;;;;;;;;;;14.05;55.07;99409.84;4881098;29;20100;-84
2022/06/08 00:10:03;;;;;;;69.38;17.38;;;;;;;14.11;55.28;99421.44;4880378;29;20021;-86
2022/06/08 00:12:30;;;;;;;76.55;18.33;;;;;;;14.13;55.36;99412.84;4863652;29;20056;-84
2022/06/08 00:14:56;;;;;;;83.22;19.17;;;;;;;14.19;55.43;99412.31;4864043;29;20084;-86
2022/06/08 00:17:23;;;;;;;76.40;17.73;;;;;;;14.16;55.76;99402.00;4848771;29;20056;-83
2022/06/08 00:19:50;;;;;;;68.15;18.83;;;;;;;14.26;55.43;99415.34;4863361;29;20081;-84
2022/06/08 00:22:17;;;;;;;90.60;19.08;;;;;;;14.28;55.45;99409.50;4863539;29;20400;-87
2022/06/08 00:24:43;;;;;;;79.88;18.27;;;;;;;14.31;56.13;99417.09;4880602;29;20045;-86
2022/06/08 00:27:10;;;;;;;80.57;17.63;;;;;;;14.31;55.45;99414.34;4863456;29;20553;-86
2022/06/08 00:29:36;;;;;;;90.35;18.92;;;;;;;14.29;54.64;99414.66;4863341;29;20064;-85
2022/06/08 00:43:47;;;;;;;109.97;18.38;;;;;;;14.27;55.10;99396.88;5887011;23;20372;-85
2022/06/08 00:46:13;;;;;;;70.38;17.70;;;;;;;14.25;55.23;99390.94;4861393;29;20136;-87
2022/06/08 00:48:50;;;;;;;68.18;17.00;;;;;;;14.41;55.06;99413.16;4848789;29;20045;-86
2022/06/08 00:51:19;;;;;;;;;;;;;;;14.50;54.56;99413.84;4862090;29;20041;-84
2022/06/08 00:54:04;;;;;;;74.53;17.55;;;;;;;14.37;53.57;99390.19;4875562;29;19924;-85
2022/06/08 00:56:37;;;;;;;71.45;17.52;;;;;;;14.45;53.83;99398.38;4861424;29;20045;-86
2022/06/08 00:59:06;;;;;;;81.43;17.15;;;;;;;14.51;53.31;99399.00;4863895;29;20050;-86
2022/06/08 01:01:32;;;;;;;58.35;16.33;;;;;;;14.59;53.71;99398.13;4861361;29;20097;-86
2022/06/08 01:04:12;;;;;;;74.55;17.83;;;;;;;14.62;52.99;99410.41;4860177;29;20572;-85
2022/06/08 01:06:44;;;;;;;74.68;17.17;;;;;;;14.64;53.50;99403.41;4844329;29;20045;-86
2022/06/08 01:09:36;;;;;;;78.00;16.48;;;;;;;14.67;54.23;99400.00;4844619;29;20500;-86
2022/06/08 01:12:12;;;;;;;67.72;17.40;;;;;;;14.76;54.14;99397.16;4844570;29;20316;-85
2022/06/08 01:14:47;;;;;;;60.58;17.73;;;;;;;14.78;54.27;99392.91;4829270;29;20045;-85
2022/06/08 01:17:17;;;;;;;65.10;17.27;;;;;;;14.78;54.48;99403.94;4837691;29;20037;-84
2022/06/08 01:19:47;;;;;;;72.65;17.90;;;;;;;14.82;54.49;99403.25;4831955;29;20049;-85
2022/06/08 01:22:19;;;;;;;73.45;16.35;;;;;;;14.84;55.39;99401.78;4841462;29;20081;-85
2022/06/08 01:24:51;;;;;;;78.55;17.25;;;;;;;14.84;54.34;99400.97;4863444;29;20053;-88
2022/06/08 01:27:51;;;;;;;82.03;17.83;;;;;;;14.88;55.25;99410.94;4836891;29;20050;-85
2022/06/08 01:30:30;;;;;;;72.47;16.92;;;;;;;14.72;56.55;99405.28;4857012;29;20049;-89
2022/06/08 01:33:18;;;;;;;61.30;16.70;;;;;;;14.72;57.14;99409.97;4843798;29;20052;-85
2022/06/08 01:36:03;;;;;;;69.38;16.83;;;;;;;14.68;57.46;99418.09;4860743;29;20392;-85
2022/06/08 01:39:01;;;;;;;59.13;16.30;;;;;;;14.53;58.37;99404.97;4826715;29;20081;-85
2022/06/08 01:42:06;;;;;;;63.50;16.33;;;;;;;14.58;58.60;99418.53;4847480;29;20052;-84
2022/06/08 01:48:03;;;;;;;71.15;17.40;;;;;;;14.60;57.06;99407.16;4817176;29;20073;-85
2022/06/08 01:51:25;;;;;;;53.78;16.48;;;;;;;14.72;57.67;99419.03;4834648;29;20041;-89
2022/06/08 01:54:02;;;;;;;84.78;16.42;;;;;;;14.74;56.22;99426.97;4752424;29;20066;-86
2022/06/08 01:56:37;;;;;;;66.72;18.88;;;;;;;14.66;55.66;99408.56;4755608;30;20051;-89
2022/06/08 01:59:37;;;;;;;58.47;14.65;;;;;;;14.62;56.09;99400.19;4740555;30;20054;-86
2022/06/08 02:02:18;;;;;;;54.97;15.88;;;;;;;14.67;57.08;99408.25;4755501;30;20051;-85
2022/06/08 02:05:10;;;;;;;52.00;15.73;;;;;;;14.76;56.71;99422.72;4756208;30;20522;-86
2022/06/08 02:07:46;;;;;;;57.72;15.57;;;;;;;14.80;56.98;99433.84;4723445;30;20092;-86
2022/06/08 02:10:33;;;;;;;57.60;14.88;;;;;;;14.80;57.53;99426.41;4754822;30;20070;-84
2022/06/08 02:13:53;;;;;;;49.38;14.68;;;;;;;14.84;55.68;99436.75;4755521;30;20050;-85
2022/06/08 02:16:42;;;;;;;56.80;15.13;;;;;;;14.80;56.51;99431.09;4755758;30;20108;-85
2022/06/08 02:19:19;;;;;;;62.90;14.05;;;;;;;14.79;54.60;99421.25;4784826;30;20051;-85
2022/06/08 02:22:03;;;;;;;66.97;13.93;;;;;;;14.74;55.56;99405.75;4754854;30;20051;-85
2022/06/08 02:24:54;;;;;;;56.25;14.40;;;;;;;14.90;55.68;99438.13;4740479;30;20152;-90
2022/06/08 02:27:37;;;;;;;58.85;14.38;;;;;;;14.91;56.24;99424.03;4763740;29;20045;-85
2022/06/08 02:30:12;;;;;;;82.00;15.30;;;;;;;14.94;56.46;99430.81;4846522;29;20495;-88
2022/06/08 02:35:39;;;;;;;55.33;14.98;;;;;;;14.96;56.78;99421.06;4862072;29;20041;-89
2022/06/08 02:38:10;;;;;;;66.40;14.43;;;;;;;15.03;56.47;99431.50;4844802;29;20078;-84
2022/06/08 02:40:43;;;;;;;78.60;14.95;;;;;;;15.06;56.19;99430.03;4813052;29;20132;-84
2022/06/08 02:43:15;;;;;;;65.50;15.65;;;;;;;15.11;55.98;99438.91;4843189;29;20647;-85
2022/06/08 02:45:44;;;;;;;105.18;17.13;;;;;;;15.15;55.89;99428.81;4842723;29;20049;-85
2022/06/08 02:48:14;;;;;;;101.80;16.63;;;;;;;15.18;55.53;99421.81;4824064;29;20049;-86
2022/06/08 02:50:55;;;;;;;78.80;16.38;;;;;;;15.31;55.79;99426.19;4830865;29;20158;-89
2022/06/08 02:53:31;;;;;;;92.50;18.08;;;;;;;15.39;55.55;99421.72;4828335;29;20052;-86
2022/06/08 02:56:08;;;;;;;76.18;16.48;;;;;;;15.50;55.56;99420.16;4827840;29;20048;-90
2022/06/08 02:58:44;;;;;;;112.38;16.63;;;;;;;15.59;55.32;99423.56;4826726;29;20065;-87
2022/06/08 03:01:20;;;;;;;93.40;17.23;;;;;;;15.79;55.16;99427.41;4824961;29;20076;-89
2022/06/08 03:03:52;;;;;;;112.57;16.88;;;;;;;15.88;54.23;99436.38;4809773;29;20054;-85
2022/06/08 03:06:28;;;;;;;131.75;16.83;;;;;;;15.96;55.17;99424.44;4809552;29;20042;-86
2022/06/08 03:09:00;;;;;;;100.03;15.73;;;;;;;15.91;53.99;99410.06;4818420;29;20041;-86
2022/06/08 03:11:33;;;;;;;65.82;12.77;;;;;;;16.10;52.74;99426.81;4846003;29;20077;-85
2022/06/08 03:14:05;;;;;;;69.25;12.77;;;;;;;16.28;52.92;99434.81;4845750;29;20041;-85
2022/06/08 03:16:40;;;;;;;68.03;11.77;;;;;;;16.38;50.64;99442.63;4833356;29;20042;-85
2022/06/08 03:19:11;;;;;;;46.90;11.30;;;;;;;16.48;50.24;99439.38;4811698;29;20146;-85
2022/06/08 03:21:39;;;;;;;53.53;10.40;;;;;;;16.58;49.90;99441.63;4829170;29;20030;-85
2022/06/08 03:24:06;;;;;;;44.35;11.25;;;;;;;16.58;50.27;99427.84;4842909;29;20052;-85
2022/06/08 03:26:46;;;;;;;65.18;13.93;;;;;;;16.81;51.63;99452.16;4835742;29;20085;-86
2022/06/08 03:29:15;;;;;;;60.25;16.52;;;;;;;16.84;55.60;99443.97;4796104;29;20065;-88
2022/06/08 03:31:42;;;;;;;52.08;16.52;;;;;;;16.88;53.21;99453.16;4835833;29;20076;-86
2022/06/08 03:34:08;;;;;;;63.92;17.30;;;;;;;16.91;53.61;99451.66;4846026;29;20049;-86
2022/06/08 03:36:35;;;;;;;139.73;19.45;;;;;;;16.97;53.74;99453.03;4843592;29;20051;-87
2022/06/08 03:39:05;;;;;;;108.03;17.48;;;;;;;16.97;52.97;99450.25;4827599;29;20094;-85
2022/06/08 03:41:33;;;;;;;58.92;13.77;;;;;;;17.09;49.43;99454.94;4857558;29;20048;-86
2022/06/08 03:44:00;;;;;;;54.72;13.18;;;;;;;17.20;50.49;99457.97;4811942;29;20073;-86
2022/06/08 03:46:28;;;;;;;54.30;13.73;;;;;;;17.22;47.70;99463.94;4842780;29;20132;-85
2022/06/08 03:51:54;;;;;;;37.90;11.43;;;;;;;17.16;46.79;99441.31;5657043;23;20163;-85
2022/06/08 03:54:24;;;;;;;43.28;10.88;;;;;;;17.30;47.06;99454.69;4860669;29;20048;-85
2022/06/08 03:56:57;;;;;;;41.47;10.93;;;;;;;17.28;47.03;99459.75;4876506;29;20077;-88
2022/06/08 03:59:24;;;;;;;51.85;11.65;;;;;;;17.30;46.78;99454.69;4877371;29;20132;-85
2022/06/08 04:01:53;;;;;;;36.70;10.55;;;;;;;17.37;46.95;99463.97;4875733;29;20052;-86
2022/06/08 04:04:20;;;;;;;;;;;;;;;17.37;46.39;99471.47;4874786;29;20111;-86
2022/06/08 04:06:47;;;;;;;;;;;;;;;17.42;46.28;99470.38;4834446;29;19931;-85
2022/06/08 04:09:23;;;;;;;57.38;12.85;;;;;;;17.43;47.00;99460.94;4885277;29;20014;-84
2022/06/08 04:11:51;;;;;;;56.35;11.98;;;;;;;17.52;46.49;99465.16;4860998;29;20140;-88
2022/06/08 04:14:17;;;;;;;50.33;11.83;;;;;;;17.58;46.64;99471.19;4815379;29;20487;-86
2022/06/08 04:40:01;;;;;;;58.88;11.85;;;;;;;17.99;44.20;99435.91;5443838;23;20057;-87
2022/06/08 04:42:29;;;;;;;54.40;13.05;;;;;;;18.11;43.98;99446.84;4881287;29;20078;-89
2022/06/08 04:44:59;;;;;;;47.35;13.35;;;;;;;18.28;44.40;99459.50;4864154;29;20037;-89
2022/06/08 04:47:25;;;;;;;69.45;12.98;;;;;;;18.24;45.42;99444.75;4848210;29;20483;-86
2022/06/08 04:49:52;;;;;;;42.35;11.80;;;;;;;18.24;43.55;99453.84;4880402;29;20044;-86
2022/06/08 04:52:20;;;;;;;45.00;12.23;;;;;;;18.30;43.78;99443.31;4880178;29;20064;-86
2022/06/08 04:54:46;;;;;;;57.37;12.40;;;;;;;18.46;43.57;99448.81;4863327;29;20048;-86
2022/06/08 04:57:14;;;;;;;50.90;12.63;;;;;;;18.49;42.22;99445.31;4863384;29;20047;-87
2022/06/08 04:59:41;;;;;;;47.85;11.70;;;;;;;18.59;43.18;99427.31;4863342;29;20052;-89
2022/06/08 05:02:42;;;;;;;67.15;12.70;;;;;;;18.80;42.86;99447.16;4875929;29;20076;-88
2022/06/08 05:05:06;;;;;;;53.55;12.90;;;;;;;18.82;40.52;99439.31;4881824;29;20529;-88
2022/06/08 05:08:20;;;;;;;61.40;13.40;;;;;;;18.96;42.54;99449.84;4867075;29;20067;-87
2022/06/08 05:11:30;;;;;;;72.93;12.48;;;;;;;18.92;40.97;99424.06;4880261;29;20534;-88
2022/06/08 06:13:32;;;;;;;78.20;11.25;;;;;;;20.07;37.25;99477.59;4852769;29;20125;-84
2022/06/08 06:16:01;;;;;;;85.60;10.27;;;;;;;20.08;38.16;99481.97;4861696;29;20548;-84
2022/06/08 06:18:28;;;;;;;62.72;10.27;;;;;;;20.07;38.15;99490.69;4861449;29;20047;-84
2022/06/08 06:21:25;;;;;;;145.38;17.48;;;;;;;20.05;37.22;99476.34;4877897;29;20037;-84
2022/06/08 06:24:19;;;;;;;62.60;9.38;;;;;;;20.13;36.98;99469.72;4873542;29;20080;-86
2022/06/08 06:27:03;;;;;;;49.15;8.10;;;;;;;20.17;36.58;99484.50;4876681;29;20049;-84
2022/06/08 06:29:53;;;;;;;49.03;8.82;;;;;;;20.02;36.79;99466.00;4861257;29;20494;-87
2022/06/08 06:32:30;;;;;;;191.55;14.18;;;;;;;20.11;37.91;99469.31;4861609;29;20072;-86
2022/06/08 06:34:58;;;;;;;63.28;9.05;;;;;;;20.30;36.66;99494.19;4877155;29;20173;-85
2022/06/08 06:37:26;;;;;;;135.02;13.52;;;;;;;20.37;35.51;99485.19;4877989;29;20128;-87
2022/06/08 06:39:53;;;;;;;126.25;12.80;;;;;;;20.37;36.18;99480.41;4861500;29;20588;-86
2022/06/08 06:42:30;;;;;;;197.25;16.65;;;;;;;20.46;35.89;99468.22;4861103;29;20061;-86
2022/06/08 06:45:19;;;;;;;140.82;12.63;;;;;;;20.60;37.29;99485.13;4867972;29;20049;-87
2022/06/08 06:47:50;;;;;;;74.78;8.45;;;;;;;20.60;34.86;99483.16;4843174;29;20045;-83
2022/06/08 06:50:25;;;;;;;50.72;7.85;;;;;;;20.71;34.51;99490.81;4877532;29;20139;-87
2022/06/08 06:52:55;;;;;;;32.10;6.63;;;;;;;20.58;33.94;99474.38;4867651;29;20041;-83
2022/06/08 06:55:28;;;;;;;42.55;8.63;;;;;;;20.69;35.88;99488.41;4861422;29;20101;-85
2022/06/08 06:57:58;;;;;;;32.92;8.48;;;;;;;20.68;35.34;99486.03;4871451;29;20577;-84
2022/06/08 07:00:31;;;;;;;25.83;7.00;;;;;;;20.63;35.36;99476.03;4878363;29;20049;-82
2022/06/08 07:03:00;;;;;;;47.33;9.00;;;;;;;20.77;36.04;99492.88;4862142;29;20472;-82
2022/06/08 07:05:33;;;;;;;58.13;9.50;;;;;;;20.90;36.58;99487.91;4881761;29;20104;-86
2022/06/08 07:08:01;;;;;;;57.45;9.18;;;;;;;21.01;36.33;99490.78;4879342;29;20119;-86
2022/06/08 07:10:27;;;;;;;125.78;15.38;;;;;;;21.07;34.91;99483.72;4851503;29;20515;-84
2022/06/08 07:12:53;;;;;;;44.65;7.00;;;;;;;21.12;32.00;99491.72;4845398;29;20392;-87
2022/06/08 07:15:23;;;;;;;81.43;9.60;;;;;;;21.11;32.05;99496.47;4877927;29;20135;-89
2022/06/08 07:17:54;;;;;;;50.50;9.25;;;;;;;21.05;30.78;99498.00;4877752;29;20094;-86
2022/06/08 07:20:24;;;;;;;31.35;6.20;;;;;;;21.09;32.14;99493.28;4860483;29;20388;-87
2022/06/08 07:22:50;;;;;;;80.22;12.68;;;;;;;21.07;31.14;99494.84;4859992;29;20049;-88
2022/06/08 07:25:20;;;;;;;32.73;7.17;;;;;;;21.07;31.30;99492.84;4876959;29;20136;-90
2022/06/08 07:27:47;;;;;;;63.30;9.90;;;;;;;21.06;31.59;99493.25;4859336;29;20778;-88
2022/06/08 07:30:14;;;;;;;;;;;;;;;21.16;32.20;99503.69;4860182;29;20045;-86
2022/06/08 07:32:42;;;;;;;115.43;11.60;;;;;;;21.20;33.25;99493.41;4875275;29;19923;-84
2022/06/08 07:35:14;;;;;;;45.78;6.82;;;;;;;21.25;32.62;99481.94;4870558;29;20080;-85
2022/06/08 07:37:42;;;;;;;70.88;13.27;;;;;;;21.19;33.73;99483.47;4858061;29;20103;-86
2022/06/08 07:40:12;;;;;;;40.05;6.80;;;;;;;21.40;33.45;99499.59;4830604;29;20052;-86
2022/06/08 07:42:39;;;;;;;47.08;12.30;;;;;;;21.43;31.80;99489.72;4828919;29;20053;-85
2022/06/08 07:45:10;;;;;;;44.08;7.63;;;;;;;21.47;32.16;99493.31;4831385;29;20192;-86
2022/06/08 07:49:36;;;;;;;56.50;15.27;;;;;;;21.54;33.37;99491.41;4831777;29;20135;-86
2022/06/08 07:50:22;;;;;;;;;;;;;;;21.56;33.51;99485.47;4845915;29;20041;-85
2022/06/08 07:52:48;;;;;;;;;;;;;;;21.51;31.87;99494.16;4830782;29;19923;-84
2022/06/08 07:55:15;;;;;;;29.88;5.25;;;;;;;21.39;29.37;99486.91;4845935;29;19971;-85
2022/06/08 07:57:41;;;;;;;27.83;5.38;;;;;;;21.40;30.76;99490.47;4827706;29;20140;-85
2022/06/08 08:00:10;;;;;;;38.88;6.50;;;;;;;21.32;30.18;99479.25;4845219;29;20036;-85
2022/06/08 08:02:39;;;;;;;99.25;12.32;;;;;;;21.47;31.96;99502.47;4845423;29;20068;-87
2022/06/08 08:05:09;;;;;;;34.22;6.00;;;;;;;21.51;29.59;99483.81;4852671;29;20045;-85
2022/06/08 08:07:37;;;;;;;26.85;5.72;;;;;;;21.58;31.10;99488.66;4859946;29;20060;-88
2022/06/08 08:21:40;;;;;;;;;;;;;;;21.80;30.70;99487.66;5227745;23;20080;-87
2022/06/08 08:24:08;;;;;;;26.70;6.15;;;;;;;21.90;32.14;99490.94;4871222;29;19927;-87
2022/06/08 08:26:34;;;;;;;50.38;6.82;;;;;;;21.77;30.52;99480.09;4892831;29;20047;-88
2022/06/08 08:29:03;;;;;;;30.38;7.90;;;;;;;21.83;30.83;99490.88;4885837;29;20052;-87
2022/06/08 08:31:29;;;;;;;33.33;6.30;;;;;;;21.69;28.71;99488.75;4884736;29;20051;-86
2022/06/08 08:33:56;;;;;;;31.15;6.60;;;;;;;21.42;27.83;99490.88;4884464;29;20044;-87
2022/06/08 08:36:22;;;;;;;34.28;6.47;;;;;;;21.33;28.33;99480.84;4861383;29;20156;-86
2022/06/08 08:38:50;;;;;;;19.42;5.18;;;;;;;21.40;28.21;99479.34;4854920;29;20388;-87
2022/06/08 09:01:52;;;;;;;64.35;7.20;;;;;;;21.84;27.43;99457.09;4834124;29;20520;-83
2022/06/08 09:04:32;;;;;;;42.28;6.32;;;;;;;21.82;27.02;99462.25;4837675;29;20057;-89
2022/06/08 09:07:11;;;;;;;37.50;8.93;;;;;;;21.88;28.43;99459.88;4835730;29;20042;-85
2022/06/08 09:12:56;;;;;;;57.78;7.85;;;;;;;21.72;28.40;99427.59;4824341;29;20038;-87
2022/06/08 09:18:41;;;;;;;82.35;8.07;;;;;;;21.95;27.99;99454.38;5050076;23;20049;-89
2022/06/08 09:21:21;;;;;;;61.45;9.65;;;;;;;22.13;28.79;99463.66;4882879;29;20080;-85
2022/06/08 09:23:54;;;;;;;49.72;8.65;;;;;;;22.14;26.12;99454.13;4894203;29;20041;-88
2022/06/08 09:26:23;;;;;;;43.92;7.57;;;;;;;22.26;28.84;99459.41;4846868;29;20041;-88
2022/06/08 09:28:58;;;;;;;24.52;5.95;;;;;;;22.43;28.46;99457.91;4881826;29;20040;-89
2022/06/08 09:31:29;;;;;;;93.22;8.77;;;;;;;22.28;28.34;99415.28;4899460;29;20104;-91
2022/06/08 10:11:39;;;;;;;14.73;5.57;;;;;;;23.01;24.89;99438.66;4865583;29;20109;-85
2022/06/08 10:14:35;;;;;;;22.38;6.18;;;;;;;23.10;26.69;99427.94;4867576;29;20045;-84
2022/06/08 10:17:33;;;;;;;67.70;8.77;;;;;;;23.26;26.56;99436.75;4888215;29;20192;-87
2022/06/08 10:28:02;;;;;;;31.95;5.65;;;;;;;23.18;23.12;99427.56;4882392;29;20093;-82
2022/06/08 10:31:06;;;;;;;31.05;6.45;;;;;;;23.22;23.36;99427.59;4874660;29;20044;-88
2022/06/08 10:33:37;;;;;;;35.10;9.25;;;;;;;23.19;23.31;99415.22;4846931;29;20067;-82
2022/06/08 10:36:08;;;;;;;15.88;5.95;;;;;;;23.14;21.91;99404.44;4883585;29;20052;-84
2022/06/08 10:38:43;;;;;;;59.10;6.85;;;;;;;23.32;20.99;99418.44;4899244;29;20100;-83
2022/06/08 10:44:00;;;;;;;107.03;10.55;;;;;;;23.27;23.35;99423.59;4905935;29;20127;-88
2022/06/08 10:46:40;;;;;;;36.70;6.82;;;;;;;23.31;21.95;99416.84;4889512;29;20041;-87
2022/06/08 10:49:20;;;;;;;20.73;6.22;;;;;;;23.30;21.73;99428.38;4883841;29;20045;-86
2022/06/08 10:52:25;;;;;;;22.52;5.70;;;;;;;23.38;22.25;99416.84;4880444;29;20045;-84
2022/06/08 10:54:53;;;;;;;33.13;6.22;;;;;;;23.49;23.56;99422.44;4875278;29;20045;-89
2022/06/08 10:57:32;;;;;;;29.83;7.93;;;;;;;23.63;23.84;99414.06;4863608;29;20113;-83
2022/06/08 11:00:26;;;;;;;33.33;8.13;;;;;;;23.79;24.54;99407.31;4868364;29;20045;-92
2022/06/08 11:02:59;;;;;;;21.90;6.18;;;;;;;23.78;22.88;99395.34;4833302;29;20048;-92
2022/06/08 11:05:31;;;;;;;25.35;7.93;;;;;;;23.96;24.90;99395.31;4837312;29;20124;-90
2022/06/08 11:08:05;;;;;;;27.08;8.90;;;;;;;24.19;23.69;99402.44;4897603;29;20507;-85
2022/06/08 11:10:51;;;;;;;13.02;6.40;;;;;;;24.12;22.15;99397.69;4868896;29;20078;-92
2022/06/08 11:13:22;;;;;;;28.58;8.30;;;;;;;24.25;23.99;99404.44;4880354;29;20049;-86
2022/06/08 11:15:53;;;;;;;31.50;8.05;;;;;;;24.29;22.94;99410.81;4883017;29;20052;-89
2022/06/08 11:18:28;;;;;;;39.53;6.97;;;;;;;24.38;24.82;99402.78;4899104;29;20053;-89
2022/06/08 11:21:21;;;;;;;26.08;7.05;;;;;;;24.46;23.08;99403.59;4909621;29;20072;-95
2022/06/08 11:23:54;;;;;;;28.38;7.82;;;;;;;24.33;21.76;99388.44;4907366;29;20045;-90
2022/06/08 11:26:23;;;;;;;20.70;7.03;;;;;;;24.53;22.54;99395.16;4874031;29;20052;-95
2022/06/08 11:29:17;;;;;;;23.02;8.10;;;;;;;24.57;21.37;99395.19;4848074;29;20045;-90
2022/06/08 11:31:45;;;;;;;29.38;6.78;;;;;;;24.54;21.97;99385.59;4872220;29;20107;-92
2022/06/08 11:34:20;;;;;;;49.15;9.18;;;;;;;24.79;23.81;99382.66;4871048;29;20415;-90
2022/06/08 11:43:13;;;;;;;18.92;7.63;;;;;;;25.44;22.46;99387.88;5626548;23;20041;-90
2022/06/08 11:52:37;;;;;;;13.45;6.22;;;;;;;25.16;21.89;99386.09;5450996;23;20120;-87
2022/06/08 11:55:23;;;;;;;53.10;9.50;;;;;;;25.16;21.36;99395.25;4881602;29;20052;-95
2022/06/08 11:57:57;;;;;;;62.45;9.40;;;;;;;25.06;21.24;99394.09;4868266;29;20709;-89
2022/06/08 12:00:34;;;;;;;67.32;9.13;;;;;;;24.95;22.30;99368.22;4883756;29;20523;-91
2022/06/08 12:03:25;;;;;;;133.68;15.05;;;;;;;24.99;20.73;99377.38;4868614;29;20049;-94
2022/06/08 12:06:07;;;;;;;114.18;11.68;;;;;;;25.02;21.81;99381.34;4885639;29;20136;-90
2022/06/08 12:08:42;;;;;;;135.40;15.82;;;;;;;25.25;23.93;99378.81;4884603;29;20529;-91
2022/06/08 12:11:11;;;;;;;64.13;9.48;;;;;;;25.25;20.63;99383.63;4876243;29;20482;-91
2022/06/08 12:13:38;;;;;;;106.43;13.80;;;;;;;24.93;20.85;99372.59;4891687;29;20037;-96
2022/06/08 12:16:30;;;;;;;69.70;11.43;;;;;;;24.95;21.19;99382.19;4886383;29;20060;-90
2022/06/08 12:19:01;;;;;;;73.72;10.02;;;;;;;25.03;21.84;99372.56;4884575;29;20049;-92
2022/06/08 12:27:23;;;;;;;21.63;6.28;;;;;;;25.46;22.02;99368.66;5888576;23;20091;-90
2022/06/08 12:29:56;;;;;;;98.60;36.75;;;;;;;25.51;21.03;99360.63;4867824;29;20104;-96
2022/06/08 12:32:31;;;;;;;50.30;9.60;;;;;;;25.67;20.47;99374.09;4867195;29;20048;-93
2022/06/08 12:35:01;;;;;;;33.80;7.78;;;;;;;25.51;19.53;99357.81;4852081;29;20127;-87
2022/06/08 12:37:30;;;;;;;69.68;14.20;;;;;;;25.48;20.07;99367.06;4836201;29;20132;-93
2022/06/08 12:40:00;;;;;;;22.45;7.22;;;;;;;25.54;19.57;99371.00;5034643;23;20160;-94
2022/06/08 12:42:37;;;;;;;68.72;10.48;;;;;;;25.67;19.87;99371.28;4866040;29;20603;-91
2022/06/08 12:45:04;;;;;;;24.23;7.57;;;;;;;25.68;20.53;99353.28;4860514;29;20107;-91
2022/06/08 12:47:42;;;;;;;41.05;8.07;;;;;;;25.78;19.12;99366.38;4848198;29;20060;-93
2022/06/08 12:50:21;;;;;;;45.17;9.00;;;;;;;25.91;20.25;99346.28;4865415;29;20460;-90
2022/06/08 12:52:49;;;;;;;38.40;8.30;;;;;;;26.01;23.42;99342.56;4847959;29;20054;-93
2022/06/08 12:55:23;;;;;;;53.92;10.10;;;;;;;26.27;19.64;99363.50;4848508;29;20052;-91
2022/06/08 12:57:53;;;;;;;76.10;9.85;;;;;;;26.10;20.30;99354.09;4845856;29;20069;-92
2022/06/08 13:00:30;;;;;;;29.67;7.53;;;;;;;25.96;20.25;99362.63;4829495;29;20049;-94
2022/06/08 13:03:27;;;;;;;47.10;8.85;;;;;;;25.76;19.75;99368.81;4817451;29;20042;-90
2022/06/08 13:05:56;;;;;;;129.38;15.73;;;;;;;25.81;20.43;99353.59;4811769;29;20056;-95
2022/06/08 13:08:25;;;;;;;55.35;10.27;;;;;;;26.04;21.60;99358.53;4815950;29;20041;-95
2022/06/08 13:11:00;;;;;;;38.13;7.43;;;;;;;26.11;19.76;99357.69;4866333;29;20586;-87
2022/06/08 13:13:33;;;;;;;41.33;9.00;;;;;;;25.98;19.94;99347.00;4865670;29;20161;-95
2022/06/08 13:16:07;;;;;;;96.57;14.38;;;;;;;26.16;20.85;99341.22;4800680;29;20117;-94
2022/06/08 13:18:38;;;;;;;37.83;8.15;;;;;;;26.30;21.36;99343.03;4819790;29;20128;-92
2022/06/08 13:21:07;;;;;;;67.18;9.88;;;;;;;26.37;19.75;99340.16;4831966;29;20060;-93
2022/06/08 13:23:36;;;;;;;31.27;8.02;;;;;;;26.44;21.83;99340.06;4868540;29;20098;-93
2022/06/08 13:26:06;;;;;;;28.48;7.78;;;;;;;26.43;20.30;99340.50;4809916;29;20050;-93
2022/06/08 13:28:35;;;;;;;278.42;27.45;;;;;;;26.48;22.26;99331.63;4834187;29;20467;-90
2022/06/08 13:31:04;;;;;;;;;;;;;;;26.61;19.89;99331.84;4853637;29;20516;-88
2022/06/08 13:36:40;;;;;;;65.55;10.05;;;;;;;26.50;19.23;99342.44;4826704;29;20131;-87
2022/06/08 13:39:35;;;;;;;55.00;8.88;;;;;;;26.37;19.33;99337.34;4815179;29;20049;-88
2022/06/08 13:42:10;;;;;;;71.00;9.52;;;;;;;26.31;18.83;99333.41;4843618;29;20075;-90
2022/06/08 13:44:43;;;;;;;56.90;8.37;;;;;;;26.37;19.45;99331.75;4796480;29;20519;-89
2022/06/08 13:47:18;;;;;;;110.72;13.20;;;;;;;26.37;20.05;99319.75;4842274;29;20054;-86
2022/06/08 13:49:49;;;;;;;52.88;9.27;;;;;;;26.44;19.37;99325.25;4842637;29;20098;-89
2022/06/08 13:52:23;;;;;;;47.35;8.48;;;;;;;26.47;18.69;99311.22;4843875;29;20052;-91
2022/06/08 13:55:40;;;;;;;54.78;9.38;;;;;;;26.58;19.58;99327.09;4842783;29;20122;-91
2022/06/08 14:02:40;;;;;;;225.65;22.58;;;;;;;26.78;20.53;99319.59;4860627;29;20152;-92
2022/06/08 14:05:08;;;;;;;84.80;12.35;;;;;;;26.77;20.53;99297.59;4860948;29;20056;-91
2022/06/08 14:13:20;;;;;;;295.08;30.98;;;;;;;26.93;22.22;99314.56;4838495;29;20057;-89
2022/06/08 14:15:59;;;;;;;60.78;9.88;;;;;;;26.88;19.53;99307.41;4811968;29;20038;-91
2022/06/08 14:18:34;;;;;;;95.75;10.95;;;;;;;26.76;18.21;99308.00;4812344;29;20049;-91
2022/06/08 14:21:03;;;;;;;88.20;12.15;;;;;;;26.82;18.20;99309.13;4822907;29;20112;-93
2022/06/08 14:23:33;;;;;;;66.00;10.35;;;;;;;26.93;20.34;99297.75;4826656;29;20054;-87
2022/06/08 14:25:59;;;;;;;203.38;18.73;;;;;;;27.02;19.40;99314.03;4815322;29;20106;-91
2022/06/08 14:28:25;;;;;;;;;;;;;;;26.90;19.54;99318.22;4815759;29;20041;-92
2022/06/08 14:30:53;;;;;;;80.18;13.43;;;;;;;26.76;19.22;99307.22;4812590;29;20374;-93
2022/06/08 14:33:21;;;;;;;;;;;;;;;26.86;21.18;99297.84;4812114;29;20057;-93
2022/06/08 14:35:50;;;;;;;326.75;36.00;;;;;;;26.92;20.61;99301.75;4820476;29;20346;-90
2022/06/08 14:59:42;;;;;;;150.18;14.15;;;;;;;27.14;20.61;99269.34;4857324;29;20096;-93
2022/06/08 15:02:18;;;;;;;213.30;22.67;;;;;;;27.24;19.04;99284.44;4859601;29;20045;-85
2022/06/08 15:04:46;;;;;;;79.10;10.15;;;;;;;27.04;18.49;99294.75;4859918;29;20504;-90
2022/06/08 15:08:00;;;;;;;47.53;6.80;;;;;;;27.03;18.25;99290.38;4859137;29;20045;-90
2022/06/08 15:16:04;;;;;;;114.43;13.63;;;;;;;27.08;19.30;99289.88;4860601;29;20064;-92
2022/06/08 15:18:31;;;;;;;175.60;19.95;;;;;;;26.84;20.38;99278.63;4860128;29;20049;-88
2022/06/08 15:20:59;;;;;;;96.13;16.00;;;;;;;26.99;19.43;99281.19;4860252;29;20479;-91
2022/06/08 15:23:27;;;;;;;70.97;10.65;;;;;;;26.98;18.99;99285.22;4829059;29;20484;-90
2022/06/08 15:25:56;;;;;;;98.90;13.25;;;;;;;26.98;18.88;99283.22;4861991;29;20101;-93
2022/06/08 15:28:29;;;;;;;81.43;11.88;;;;;;;27.03;18.53;99285.56;4860041;29;20042;-90
2022/06/08 15:30:55;;;;;;;92.35;12.50;;;;;;;27.00;20.21;99277.19;4861017;29;20052;-92
2022/06/08 15:33:25;;;;;;;274.67;24.20;;;;;;;27.06;21.43;99289.53;4899275;23;20061;-94
2022/06/08 15:36:16;;;;;;;255.80;26.92;;;;;;;26.89;21.24;99288.59;4898036;29;20048;-86
2022/06/08 15:38:45;;;;;;;129.05;15.25;;;;;;;26.87;19.99;99289.00;4898663;29;20056;-94
2022/06/08 15:41:11;;;;;;;107.88;13.30;;;;;;;26.94;20.42;99288.88;4881488;29;20104;-92
2022/06/08 15:43:39;;;;;;;171.32;19.75;;;;;;;26.92;19.59;99280.13;4881341;29;20525;-89
2022/06/08 15:46:07;;;;;;;175.98;21.50;;;;;;;26.79;21.76;99267.09;4880693;29;20041;-91
2022/06/08 16:06:10;;;;;;;205.90;21.95;;;;;;;26.02;21.31;99300.13;5296392;23;20530;-89
2022/06/08 16:31:56;;;;;;;442.45;57.65;;;;;;;24.40;27.82;99301.78;4903856;23;20052;-90
2022/06/08 16:34:25;;;;;;;244.32;32.13;;;;;;;24.22;25.71;99295.50;4884838;29;20511;-84
2022/06/08 16:36:51;;;;;;;142.25;26.02;;;;;;;24.09;26.03;99307.13;4848203;29;20048;-90
2022/06/08 16:39:21;;;;;;;110.72;22.50;;;;;;;23.96;25.97;99300.38;4881041;29;20036;-83
2022/06/08 16:41:47;;;;;;;85.57;20.75;;;;;;;23.88;25.80;99305.19;4873606;29;20567;-86
2022/06/08 16:44:15;;;;;;;74.40;19.42;;;;;;;23.79;26.69;99295.66;4847554;29;20034;-86